Time;durP1;ratioP1;P1;durP2;ratioP2;P2;SDS_P1;SDS_P2;PMS_P1;PMS_P2;Temp;Humidity;BMP_temperature;BMP_pressure;BME280_temperature;BME280_humidity;BME280_pressure;Samples;Min_cycle;Max_cycle;Signal;HPM_P1;HPM_P2
2022/04/10 00:03:25;;;;;;;4.30;1.70;;;3.60;99.90;;;;;;6712591;88;20194;-79
2022/04/10 00:13:26;;;;;;;4.47;1.90;;;3.70;99.90;;;;;;6713636;88;20189;-79
2022/04/10 00:23:27;;;;;;;3.55;1.70;;;3.70;99.90;;;;;;6713168;88;20554;-79
2022/04/10 00:33:28;;;;;;;8.43;2.03;;;3.40;99.90;;;;;;6708792;88;20616;-79
2022/04/10 00:43:32;;;;;;;6.78;2.10;;;3.30;99.90;;;;;;6712245;88;20265;-79
2022/04/10 00:53:34;;;;;;;6.45;1.80;;;3.40;99.90;;;;;;6695343;88;20191;-79
2022/04/10 01:03:34;;;;;;;5.15;1.70;;;3.30;99.90;;;;;;6693859;89;20216;-79
2022/04/10 01:13:35;;;;;;;6.22;1.55;;;3.20;99.90;;;;;;6694648;89;20252;-78
2022/04/10 01:23:37;;;;;;;5.70;1.73;;;3.10;99.90;;;;;;6696176;88;20634;-79
2022/04/10 01:33:38;;;;;;;5.90;1.90;;;3.00;99.90;;;;;;6697718;88;20190;-79
2022/04/10 01:43:49;;;;;;;6.90;1.60;;;2.90;99.90;;;;;;6697915;88;20219;-78
2022/04/10 01:54:10;;;;;;;6.78;1.83;;;2.90;99.90;;;;;;6740622;77;20249;-80
2022/04/10 02:04:10;;;;;;;5.57;1.83;;;3.00;99.90;;;;;;6747046;88;20220;-79
2022/04/10 02:14:13;;;;;;;7.57;1.80;;;3.00;99.90;;;;;;6754290;88;20234;-78
2022/04/10 02:24:13;;;;;;;5.18;1.65;;;2.80;99.90;;;;;;6755749;88;20599;-79
2022/04/10 02:34:14;;;;;;;6.55;1.50;;;2.90;99.90;;;;;;6755595;88;20189;-79
2022/04/10 02:44:14;;;;;;;5.35;1.50;;;3.00;99.90;;;;;;6755165;88;20217;-79
2022/04/10 02:54:16;;;;;;;4.95;1.55;;;2.90;99.90;;;;;;6751103;88;20240;-80
2022/04/10 03:04:17;;;;;;;6.60;1.67;;;3.00;99.90;;;;;;6739650;88;20247;-79
2022/04/10 03:14:17;;;;;;;3.67;1.60;;;3.20;99.90;;;;;;6738059;88;20189;-80
2022/04/10 03:24:18;;;;;;;7.30;1.90;;;3.30;99.90;;;;;;6737507;88;20235;-80
2022/04/10 03:34:18;;;;;;;4.43;1.45;;;3.30;99.90;;;;;;6738191;88;20207;-79
2022/04/10 03:44:19;;;;;;;5.82;1.80;;;3.40;99.90;;;;;;6736865;88;20186;-80
2022/04/10 03:54:20;;;;;;;5.95;1.58;;;3.60;99.90;;;;;;6736642;88;20366;-79
2022/04/10 04:04:21;;;;;;;5.72;1.77;;;3.90;99.90;;;;;;6752934;88;20232;-78
2022/04/10 04:14:21;;;;;;;4.80;1.80;;;4.00;99.90;;;;;;6755638;88;21157;-80
2022/04/10 04:24:22;;;;;;;7.75;1.70;;;3.90;99.90;;;;;;6755193;88;20611;-80
2022/04/10 04:34:23;;;;;;;6.30;1.65;;;3.90;99.90;;;;;;6754174;88;20302;-79
2022/04/10 04:44:24;;;;;;;3.45;1.42;;;4.00;99.90;;;;;;6753809;88;20313;-80
2022/04/10 04:54:24;;;;;;;6.30;1.92;;;4.20;99.90;;;;;;6754526;88;20213;-79
2022/04/10 05:04:25;;;;;;;5.97;1.95;;;4.20;99.90;;;;;;6755139;88;20194;-79
2022/04/10 05:14:25;;;;;;;4.43;1.73;;;4.00;99.90;;;;;;6756597;88;20177;-80
2022/04/10 05:24:26;;;;;;;4.65;2.08;;;3.90;99.90;;;;;;6753724;88;20610;-79
2022/04/10 05:34:26;;;;;;;4.65;2.05;;;3.90;99.90;;;;;;6754094;88;20185;-77
2022/04/10 05:44:27;;;;;;;7.95;2.25;;;4.10;99.90;;;;;;6746244;88;20547;-78
2022/04/10 05:54:27;;;;;;;5.50;2.15;;;4.10;99.90;;;;;;6749245;88;20201;-78
2022/04/10 06:04:28;;;;;;;6.47;2.10;;;4.30;99.90;;;;;;6748150;88;20185;-78
2022/04/10 06:14:28;;;;;;;4.85;2.05;;;4.70;99.90;;;;;;6749295;88;20329;-78
2022/04/10 06:24:29;;;;;;;9.82;2.47;;;5.10;99.90;;;;;;6728305;88;20178;-78
2022/04/10 06:34:29;;;;;;;5.40;2.10;;;5.20;99.90;;;;;;6715312;88;21022;-79
2022/04/10 06:44:30;;;;;;;5.78;2.20;;;5.60;99.90;;;;;;6741483;88;20289;-78
2022/04/10 06:54:30;;;;;;;6.30;2.03;;;5.90;99.90;;;;;;6745545;88;20200;-78
2022/04/10 07:04:31;;;;;;;4.43;2.12;;;6.40;99.90;;;;;;6735526;88;20208;-79
2022/04/10 07:14:31;;;;;;;3.80;1.85;;;6.70;99.90;;;;;;6729228;88;20237;-80
2022/04/10 07:24:32;;;;;;;6.05;2.00;;;6.90;99.90;;;;;;6733406;88;20202;-79
2022/04/10 07:34:33;;;;;;;6.03;2.28;;;7.50;99.90;;;;;;6722039;88;20249;-81
2022/04/10 07:44:33;;;;;;;8.13;2.50;;;8.00;99.90;;;;;;6730178;88;20206;-80
2022/04/10 08:05:36;;;;;;;5.93;2.67;;;9.00;99.90;;;;;;6771779;88;20201;-81
2022/04/10 08:15:36;;;;;;;6.85;2.60;;;9.10;99.90;;;;;;6774265;87;20148;-79
2022/04/10 08:25:37;;;;;;;8.90;2.40;;;9.20;99.90;;;;;;6781523;87;20167;-80
2022/04/10 08:35:37;;;;;;;6.72;2.20;;;9.10;99.90;;;;;;6778103;87;20515;-81
2022/04/10 08:45:39;;;;;;;6.68;2.95;;;9.60;99.90;;;;;;6780445;87;20188;-78
2022/04/10 08:55:39;;;;;;;6.55;2.20;;;9.80;99.90;;;;;;6755516;87;20812;-80
2022/04/10 09:05:45;;;;;;;6.93;2.85;;;10.10;99.90;;;;;;6760654;88;20291;-81
2022/04/10 09:15:45;;;;;;;5.03;2.37;;;10.60;99.90;;;;;;6772755;87;20220;-80
2022/04/10 09:25:46;;;;;;;6.45;2.30;;;11.10;99.00;;;;;;6775558;87;20212;-81
2022/04/10 09:35:47;;;;;;;4.65;1.40;;;10.40;98.40;;;;;;6754688;88;20214;-80
2022/04/10 09:45:47;;;;;;;3.95;1.55;;;10.10;98.30;;;;;;6737250;88;20301;-81
2022/04/10 09:55:56;;;;;;;8.27;1.90;;;11.60;96.10;;;;;;6736690;88;20185;-80
2022/04/10 10:05:57;;;;;;;8.23;2.10;;;10.70;95.90;;;;;;6745826;88;20199;-80
2022/04/10 10:15:59;;;;;;;5.97;1.83;;;10.10;96.40;;;;;;6769390;87;20762;-78
2022/04/10 10:26:27;;;;;;;4.32;1.70;;;9.70;97.30;;;;;;6756713;88;20240;-82
2022/04/10 10:36:28;;;;;;;4.32;1.73;;;9.70;95.50;;;;;;6739132;88;20198;-81
2022/04/10 10:46:32;;;;;;;5.75;1.60;;;9.10;99.90;;;;;;6746516;88;20205;-81
2022/04/10 10:56:36;;;;;;;6.82;1.70;;;10.10;98.90;;;;;;6744815;88;20196;-80
2022/04/10 11:06:45;;;;;;;3.47;1.40;;;10.20;96.40;;;;;;6743998;88;20236;-79
2022/04/10 11:16:46;;;;;;;3.42;1.45;;;11.10;95.00;;;;;;6747413;88;20192;-81
2022/04/10 11:26:48;;;;;;;5.15;1.30;;;12.60;90.80;;;;;;6758157;88;20265;-81
2022/04/10 11:36:52;;;;;;;3.97;1.40;;;13.60;83.50;;;;;;6762524;88;20161;-80
2022/04/10 11:46:53;;;;;;;2.85;1.37;;;12.20;84.40;;;;;;6762977;88;20638;-80
2022/04/10 11:56:54;;;;;;;4.30;1.45;;;11.30;88.10;;;;;;6707213;88;20223;-80
2022/04/10 12:07:17;;;;;;;4.72;1.92;;;11.00;90.40;;;;;;6753240;88;20570;-80
2022/04/10 12:17:19;;;;;;;2.92;1.40;;;11.10;91.70;;;;;;6727194;88;20194;-80
2022/04/10 12:27:20;;;;;;;4.03;1.90;;;10.90;91.00;;;;;;6724348;88;20220;-81
2022/04/10 12:37:20;;;;;;;4.40;1.70;;;11.20;90.60;;;;;;6708251;88;20690;-80
2022/04/10 12:47:44;;;;;;;3.58;1.80;;;12.00;90.40;;;;;;6706017;88;20206;-80
2022/04/10 12:57:59;;;;;;;3.70;1.60;;;14.50;85.30;;;;;;6717145;88;20662;-80
2022/04/10 13:08:02;;;;;;;3.28;1.12;;;13.50;82.10;;;;;;6746790;88;20740;-80
2022/04/10 13:18:05;;;;;;;4.45;1.33;;;13.80;82.30;;;;;;6750513;88;20187;-80
2022/04/10 13:28:05;;;;;;;3.22;1.50;;;14.50;81.50;;;;;;6754179;88;20184;-80
2022/04/10 13:38:06;;;;;;;4.03;1.52;;;14.10;80.70;;;;;;6749095;88;20200;-79
2022/04/10 13:48:27;;;;;;;3.55;1.70;;;14.00;81.60;;;;;;6754160;88;20200;-79
2022/04/10 13:58:28;;;;;;;3.25;1.83;;;15.00;81.10;;;;;;6724927;88;20190;-79
2022/04/10 14:08:28;;;;;;;3.83;1.60;;;15.30;78.60;;;;;;6724389;88;20322;-79
2022/04/10 14:18:29;;;;;;;3.55;1.48;;;14.20;79.30;;;;;;6725087;88;20522;-79
2022/04/10 14:28:29;;;;;;;4.87;1.60;;;13.70;79.50;;;;;;6722266;88;20185;-81
2022/04/10 14:38:30;;;;;;;4.80;1.43;;;13.50;80.20;;;;;;6724471;88;20194;-79
2022/04/10 14:48:31;;;;;;;2.90;1.50;;;13.00;79.70;;;;;;6724513;88;20951;-81
2022/04/10 14:58:31;;;;;;;3.70;1.65;;;12.60;79.10;;;;;;6727330;88;20213;-79
2022/04/10 15:08:32;;;;;;;3.50;1.50;;;12.30;77.80;;;;;;6722682;88;20169;-82
2022/04/10 15:18:33;;;;;;;3.25;1.40;;;12.50;79.50;;;;;;6721543;88;20245;-79
2022/04/10 15:28:34;;;;;;;2.80;1.40;;;12.00;78.70;;;;;;6716711;88;20197;-80
2022/04/10 15:38:35;;;;;;;3.12;1.60;;;11.80;79.50;;;;;;6718367;88;20206;-79
2022/04/10 15:58:38;;;;;;;3.35;1.67;;;12.30;79.10;;;;;;6733717;88;20205;-80
2022/04/10 16:08:39;;;;;;;3.58;1.73;;;12.30;78.20;;;;;;6746205;88;20246;-81
2022/04/10 16:18:39;;;;;;;5.70;1.77;;;13.30;79.30;;;;;;6752255;88;20191;-80
2022/04/10 16:38:59;;;;;;;3.62;1.87;;;13.20;78.20;;;;;;6746964;88;20196;-79
2022/04/10 16:49:01;;;;;;;4.45;1.80;;;12.90;77.40;;;;;;6750637;88;20261;-80
2022/04/10 16:59:01;;;;;;;4.43;1.90;;;12.80;76.50;;;;;;6711966;87;20707;-82
2022/04/10 17:09:02;;;;;;;6.73;1.70;;;12.70;76.90;;;;;;6707444;89;20231;-80
2022/04/10 17:19:03;;;;;;;4.37;1.62;;;12.40;77.20;;;;;;6708333;89;20497;-80
2022/04/10 17:29:03;;;;;;;5.03;1.80;;;12.20;77.80;;;;;;6714604;88;20494;-80
2022/04/10 17:39:04;;;;;;;5.00;1.80;;;12.00;78.70;;;;;;6728980;87;20671;-79
2022/04/10 17:49:05;;;;;;;4.72;2.10;;;11.70;80.60;;;;;;6706485;88;20194;-79
2022/04/10 17:59:06;;;;;;;3.70;1.90;;;11.10;81.50;;;;;;6696283;88;20241;-79
2022/04/10 18:09:07;;;;;;;3.35;1.83;;;10.90;83.00;;;;;;6696782;87;20783;-80
2022/04/10 18:19:07;;;;;;;5.65;2.50;;;10.60;83.60;;;;;;6709129;88;20214;-79
2022/04/10 18:29:08;;;;;;;14.82;8.50;;;10.10;86.90;;;;;;6692587;87;20207;-81
2022/04/10 18:39:11;;;;;;;7.53;4.00;;;9.80;87.60;;;;;;6675022;88;20203;-81
2022/04/10 18:59:31;;;;;;;10.80;6.62;;;9.10;90.50;;;;;;6753754;88;20193;-82
2022/04/10 19:09:32;;;;;;;10.65;5.35;;;8.70;91.80;;;;;;6703993;88;20447;-80
2022/04/10 19:19:33;;;;;;;7.15;3.50;;;8.60;92.40;;;;;;6696582;88;20167;-79
2022/04/10 19:29:33;;;;;;;7.22;4.28;;;8.30;93.10;;;;;;6696176;88;20239;-83
2022/04/10 19:39:36;;;;;;;8.32;3.78;;;8.20;95.20;;;;;;6692619;89;20307;-79
2022/04/10 19:59:53;;;;;;;7.45;3.47;;;7.80;95.50;;;;;;6716194;88;20666;-81
2022/04/10 20:09:55;;;;;;;8.30;3.30;;;7.30;97.30;;;;;;6706030;88;20254;-81
2022/04/10 20:19:55;;;;;;;9.90;4.03;;;7.40;98.20;;;;;;6707988;88;20221;-81
2022/04/10 20:29:56;;;;;;;6.70;3.60;;;7.20;99.90;;;;;;6713331;88;20341;-81
2022/04/10 20:39:58;;;;;;;9.75;3.87;;;6.90;99.90;;;;;;6710671;88;20204;-80
2022/04/10 20:49:59;;;;;;;8.15;3.28;;;6.50;99.90;;;;;;6711707;88;20196;-81
2022/04/10 21:00:01;;;;;;;5.68;3.33;;;6.40;99.90;;;;;;6726395;88;20201;-81
2022/04/10 21:10:04;;;;;;;6.65;3.25;;;6.10;99.90;;;;;;6729515;88;20191;-81
2022/04/10 21:20:05;;;;;;;8.27;3.42;;;5.80;99.90;;;;;;6733085;88;20221;-81
2022/04/10 21:30:06;;;;;;;5.25;3.20;;;6.00;99.90;;;;;;6711605;88;20583;-80
2022/04/10 21:40:09;;;;;;;7.62;3.40;;;5.50;99.90;;;;;;6708556;88;20193;-82
2022/04/10 21:50:10;;;;;;;7.15;3.20;;;5.50;99.90;;;;;;6711563;88;21415;-80
2022/04/10 22:00:19;;;;;;;7.78;3.62;;;5.30;99.90;;;;;;6727352;88;20219;-80
2022/04/10 22:10:20;;;;;;;6.68;3.45;;;5.10;99.90;;;;;;6713140;88;20294;-81
2022/04/10 22:20:20;;;;;;;6.75;3.72;;;5.10;99.90;;;;;;6707903;88;20211;-81
2022/04/10 22:30:21;;;;;;;6.25;3.25;;;4.90;99.90;;;;;;6712903;88;20205;-81
2022/04/10 22:40:22;;;;;;;8.63;3.47;;;4.70;99.90;;;;;;6709136;88;20193;-79
2022/04/10 22:50:23;;;;;;;8.05;3.60;;;4.70;99.90;;;;;;6707558;88;20208;-78
2022/04/10 23:00:23;;;;;;;4.87;3.05;;;4.40;99.90;;;;;;6707455;88;20735;-77
2022/04/10 23:10:24;;;;;;;5.77;3.10;;;4.40;99.90;;;;;;6709282;88;20356;-79
2022/04/10 23:20:24;;;;;;;5.40;3.03;;;4.40;99.90;;;;;;6706939;88;20536;-77
2022/04/10 23:30:25;;;;;;;8.30;3.00;;;4.40;99.90;;;;;;6707864;88;20629;-77
2022/04/10 23:40:25;;;;;;;5.55;3.00;;;4.40;99.90;;;;;;6707550;88;20190;-79
2022/04/10 23:50:26;;;;;;;5.10;2.70;;;4.30;99.90;;;;;;6706757;88;20197;-79
